createdAt,value
2019-04-21T00:00:00.450Z,59.39
2019-04-21T00:01:08.602Z,59.44
2019-04-21T00:02:08.890Z,59.29
2019-04-21T00:03:20.631Z,59.24
2019-04-21T00:04:30.423Z,59.11
2019-04-21T00:05:40.110Z,59.07
2019-04-21T00:06:48.153Z,59.17
2019-04-21T00:07:51.095Z,59.24
2019-04-21T00:08:57.946Z,59.18
2019-04-21T00:10:04.035Z,59.38
2019-04-21T00:11:04.344Z,59.27
2019-04-21T00:12:08.958Z,59.41
2019-04-21T00:13:08.099Z,59.54
2019-04-21T00:14:11.424Z,59.24
2019-04-21T00:15:09.672Z,59.45
2019-04-21T00:16:07.436Z,59.30
2019-04-21T00:17:12.922Z,59.23
2019-04-21T00:18:14.350Z,59.42
2019-04-21T00:19:22.634Z,59.30
2019-04-21T00:20:30.942Z,59.15
2019-04-21T00:21:34.407Z,59.34
2019-04-21T00:22:41.959Z,59.30
2019-04-21T00:23:53.791Z,59.30
2019-04-21T00:24:51.900Z,59.38
2019-04-21T00:25:51.244Z,59.45
2019-04-21T00:27:05.605Z,59.29
2019-04-21T00:28:21.705Z,59.45
2019-04-21T00:29:16.593Z,59.71
2019-04-21T00:30:21.802Z,59.41
2019-04-21T00:31:23.176Z,59.30
2019-04-21T00:32:21.907Z,59.42
2019-04-21T00:33:17.601Z,59.78
2019-04-21T00:34:17.493Z,59.73
2019-04-21T00:35:25.773Z,0.00
2019-04-21T00:36:37.756Z,59.73
2019-04-21T00:37:48.284Z,59.66
2019-04-21T00:39:09.636Z,59.64
2019-04-21T00:39:59.963Z,59.81
2019-04-21T00:41:09.226Z,59.79
2019-04-21T00:42:05.175Z,59.90
2019-04-21T00:43:12.907Z,59.96
2019-04-21T00:44:08.491Z,59.85
2019-04-21T00:45:15.148Z,59.68
2019-04-21T00:46:12.326Z,59.57
2019-04-21T00:47:30.624Z,59.89
2019-04-21T00:48:36.522Z,59.86
2019-04-21T00:49:26.941Z,59.75
2019-04-21T00:51:01.689Z,59.75
2019-04-21T00:51:54.122Z,59.57
2019-04-21T00:52:58.026Z,0.00
2019-04-21T00:53:58.529Z,59.41
2019-04-21T00:55:07.629Z,59.38
2019-04-21T00:56:15.614Z,59.51
2019-04-21T00:57:12.039Z,59.44
2019-04-21T00:58:17.534Z,59.54
2019-04-21T00:59:20.126Z,59.55
2019-04-21T01:00:22.134Z,59.69
2019-04-21T01:01:26.738Z,59.40
2019-04-21T01:02:35.009Z,59.27
2019-04-21T01:03:36.178Z,59.31
2019-04-21T01:04:39.979Z,59.31
2019-04-21T01:05:49.690Z,59.23
2019-04-21T01:06:49.652Z,59.26
2019-04-21T01:07:46.983Z,59.37
2019-04-21T01:08:55.262Z,59.52
2019-04-21T01:09:48.546Z,59.80
2019-04-21T01:10:52.787Z,59.75
2019-04-21T01:12:08.088Z,59.97
2019-04-21T01:13:18.376Z,59.86
2019-04-21T01:14:25.983Z,60.17
2019-04-21T01:15:26.407Z,60.02
2019-04-21T01:16:31.080Z,60.19
2019-04-21T01:17:32.145Z,60.22
2019-04-21T01:18:33.223Z,59.92
2019-04-21T01:19:33.743Z,60.39
2019-04-21T01:20:18.808Z,60.63
2019-04-21T01:21:24.995Z,60.73
2019-04-21T01:22:28.646Z,60.57
2019-04-21T01:23:33.705Z,60.32
2019-04-21T01:24:42.950Z,60.07
2019-04-21T01:25:50.414Z,60.22
2019-04-21T01:26:59.125Z,60.62
2019-04-21T01:28:05.024Z,60.88
2019-04-21T01:29:11.818Z,60.81
2019-04-21T01:30:19.245Z,60.80
2019-04-21T01:31:17.089Z,60.67
2019-04-21T01:32:29.718Z,60.32
2019-04-21T01:33:33.591Z,60.28
2019-04-21T01:34:39.418Z,60.23
2019-04-21T01:35:39.674Z,60.52
2019-04-21T01:36:38.760Z,60.33
2019-04-21T01:37:49.482Z,60.29
2019-04-21T01:38:56.573Z,60.02
2019-04-21T01:40:04.691Z,59.92
2019-04-21T01:41:10.002Z,60.25
2019-04-21T01:42:03.560Z,60.13
2019-04-21T01:43:07.734Z,60.41
2019-04-21T01:44:22.424Z,60.14
2019-04-21T01:45:18.891Z,60.49
2019-04-21T01:46:19.558Z,60.76
2019-04-21T01:47:20.484Z,60.31
2019-04-21T01:48:24.389Z,60.59
2019-04-21T01:49:28.623Z,60.61
2019-04-21T01:50:36.288Z,60.15
2019-04-21T01:51:46.777Z,60.09
2019-04-21T01:52:53.134Z,60.06
2019-04-21T01:53:59.556Z,60.42
2019-04-21T01:55:02.684Z,60.41
2019-04-21T01:56:00.558Z,60.67
2019-04-21T01:58:01.440Z,60.38
2019-04-21T01:59:01.533Z,60.62
2019-04-21T02:00:12.543Z,60.36
2019-04-21T02:01:23.051Z,60.62
2019-04-21T02:02:28.067Z,60.47
2019-04-21T02:03:50.185Z,60.24
2019-04-21T02:04:41.298Z,60.22
2019-04-21T02:05:46.677Z,60.34
2019-04-21T02:06:44.365Z,60.48
2019-04-21T02:07:44.767Z,60.23
2019-04-21T02:08:49.074Z,60.05
2019-04-21T02:10:00.819Z,59.95
2019-04-21T02:11:05.251Z,60.26
2019-04-21T02:12:10.102Z,60.26
2019-04-21T02:13:09.022Z,60.87
2019-04-21T02:14:17.593Z,61.00
2019-04-21T02:15:26.845Z,61.07
2019-04-21T02:16:23.096Z,61.33
2019-04-21T02:17:29.219Z,62.00
2019-04-21T02:18:33.914Z,62.76
2019-04-21T02:19:31.577Z,62.87
2019-04-21T02:20:31.725Z,62.67
2019-04-21T02:21:41.050Z,62.74
2019-04-21T02:23:07.418Z,62.85
2019-04-21T02:23:59.044Z,62.81
2019-04-21T02:25:01.000Z,62.88
2019-04-21T02:26:08.026Z,63.25
2019-04-21T02:27:08.586Z,63.42
2019-04-21T02:28:13.430Z,63.59
2019-04-21T02:29:20.635Z,63.77
2019-04-21T02:30:29.388Z,64.08
2019-04-21T02:31:39.383Z,64.13
2019-04-21T02:32:48.457Z,64.45
2019-04-21T02:33:45.878Z,64.82
2019-04-21T02:34:49.086Z,64.81
2019-04-21T02:37:06.535Z,65.27
2019-04-21T02:38:03.762Z,65.07
2019-04-21T02:39:15.895Z,65.11
2019-04-21T02:40:11.246Z,65.08
2019-04-21T02:41:05.835Z,64.83
2019-04-21T02:42:23.814Z,64.77
2019-04-21T02:44:30.216Z,64.54
2019-04-21T02:45:30.186Z,64.53
2019-04-21T02:47:47.964Z,64.48
2019-04-21T02:48:49.024Z,64.31
2019-04-21T02:49:56.608Z,64.38
2019-04-21T02:51:04.742Z,64.08
2019-04-21T02:52:01.263Z,63.94
2019-04-21T02:54:37.345Z,63.75
2019-04-21T02:55:22.182Z,63.15
2019-04-21T02:57:18.535Z,62.70
2019-04-21T02:58:25.046Z,63.01
2019-04-21T02:59:23.651Z,63.33
2019-04-21T03:00:30.345Z,63.76
2019-04-21T03:05:53.058Z,63.85
2019-04-21T03:07:03.730Z,63.70
2019-04-21T03:08:09.864Z,63.83
2019-04-21T03:09:09.185Z,63.91
2019-04-21T03:10:28.687Z,64.42
2019-04-21T03:11:49.007Z,64.55
2019-04-21T03:13:26.700Z,64.67
2019-04-21T03:15:31.161Z,64.65
2019-04-21T03:16:26.487Z,65.04
2019-04-21T03:20:51.012Z,66.27
2019-04-21T03:22:02.994Z,66.81
2019-04-21T03:23:00.326Z,67.01
2019-04-21T03:23:58.337Z,67.08
2019-04-21T03:27:34.896Z,68.30
2019-04-21T03:28:16.174Z,68.50
2019-04-21T03:29:28.284Z,68.42
2019-04-21T03:30:52.964Z,68.35
2019-04-21T03:31:55.445Z,68.22
2019-04-21T03:33:16.662Z,68.09
2019-04-21T03:36:12.879Z,67.03
2019-04-21T03:38:16.620Z,66.66
2019-04-21T03:39:17.902Z,66.62
2019-04-21T03:41:12.640Z,66.26
2019-04-21T03:43:20.881Z,66.03
2019-04-21T03:44:24.707Z,66.38
2019-04-21T03:45:32.636Z,66.41
2019-04-21T03:46:35.786Z,66.63
2019-04-21T03:47:39.844Z,66.92
2019-04-21T03:48:42.726Z,67.26
2019-04-21T03:50:48.311Z,68.30
2019-04-21T03:52:03.783Z,68.84
2019-04-21T03:54:00.190Z,69.38
2019-04-21T03:55:36.080Z,69.84
2019-04-21T03:57:21.989Z,70.22
2019-04-21T03:58:47.003Z,70.50
2019-04-21T03:59:16.112Z,70.73
2019-04-21T04:01:41.203Z,71.49
2019-04-21T04:02:45.133Z,71.85
2019-04-21T04:04:44.163Z,71.90
2019-04-21T04:07:08.231Z,72.07
2019-04-21T04:08:18.512Z,72.06
2019-04-21T04:12:13.181Z,71.25
2019-04-21T04:13:37.637Z,70.99
2019-04-21T04:14:22.852Z,70.56
2019-04-21T04:15:34.763Z,70.50
2019-04-21T04:17:32.993Z,70.53
2019-04-21T04:20:51.681Z,69.95
2019-04-21T04:22:01.280Z,70.05
2019-04-21T04:23:08.048Z,69.76
2019-04-21T04:25:07.030Z,69.44
2019-04-21T04:28:19.461Z,69.53
2019-04-21T04:29:24.504Z,69.75
2019-04-21T04:31:37.664Z,70.19
2019-04-21T04:32:34.740Z,70.36
2019-04-21T04:34:49.805Z,70.64
2019-04-21T04:36:03.816Z,70.80
2019-04-21T04:37:12.702Z,70.96
2019-04-21T04:37:59.185Z,71.23
2019-04-21T04:39:14.183Z,71.45
2019-04-21T04:40:09.991Z,71.55
2019-04-21T04:41:16.245Z,71.65
2019-04-21T04:43:19.883Z,71.88
2019-04-21T04:44:32.263Z,71.93
2019-04-21T04:45:37.325Z,72.14
2019-04-21T04:46:37.673Z,72.33
2019-04-21T04:47:32.907Z,72.43
2019-04-21T04:48:39.033Z,72.51
2019-04-21T04:49:48.068Z,72.36
2019-04-21T04:50:49.473Z,72.31
2019-04-21T04:52:51.313Z,72.45
2019-04-21T04:55:03.743Z,72.45
2019-04-21T04:57:14.487Z,72.60
2019-04-21T04:58:54.675Z,72.69
2019-04-21T04:59:43.666Z,72.84
2019-04-21T05:01:32.375Z,73.07
2019-04-21T05:05:53.244Z,72.83
2019-04-21T05:08:01.625Z,72.31
2019-04-21T05:09:59.638Z,72.09
2019-04-21T05:11:20.716Z,71.89
2019-04-21T05:12:01.648Z,71.73
2019-04-21T05:13:21.318Z,71.88
2019-04-21T05:14:16.744Z,71.64
2019-04-21T05:15:16.200Z,71.64
2019-04-21T05:17:38.604Z,71.50
2019-04-21T05:18:50.438Z,71.49
2019-04-21T05:19:42.666Z,71.70
2019-04-21T05:20:49.232Z,71.87
2019-04-21T05:21:49.825Z,71.66
2019-04-21T05:22:48.877Z,71.64
2019-04-21T05:23:48.391Z,71.83
2019-04-21T05:24:49.264Z,71.88
2019-04-21T05:25:52.176Z,71.95
2019-04-21T05:26:55.418Z,71.89
2019-04-21T05:27:57.813Z,71.84
2019-04-21T05:29:01.922Z,71.72
2019-04-21T05:30:16.954Z,71.39
2019-04-21T05:31:23.053Z,71.22
2019-04-21T05:32:39.785Z,71.18
2019-04-21T05:33:30.735Z,71.11
2019-04-21T05:34:31.934Z,70.89
2019-04-21T05:35:32.389Z,71.00
2019-04-21T05:36:39.560Z,70.87
2019-04-21T05:37:43.730Z,70.60
2019-04-21T05:38:41.786Z,70.10
2019-04-21T05:39:49.233Z,69.32
2019-04-21T05:40:51.347Z,67.87
2019-04-21T05:41:47.473Z,66.80
2019-04-21T05:43:04.409Z,65.34
2019-04-21T05:44:10.501Z,63.74
2019-04-21T05:46:21.605Z,61.28
2019-04-21T05:48:30.624Z,59.17
2019-04-21T05:49:27.977Z,58.23
2019-04-21T05:50:32.095Z,57.40
2019-04-21T05:51:35.575Z,57.61
2019-04-21T05:52:38.354Z,57.37
2019-04-21T05:53:48.056Z,57.16
2019-04-21T05:54:59.646Z,56.57
2019-04-21T05:56:01.714Z,56.37
2019-04-21T05:57:01.109Z,56.63
2019-04-21T05:57:58.509Z,56.15
2019-04-21T05:59:10.283Z,55.98
2019-04-21T06:00:15.480Z,55.95
2019-04-21T06:01:24.328Z,56.24
2019-04-21T06:02:27.751Z,56.53
2019-04-21T06:03:30.739Z,56.96
2019-04-21T06:04:52.086Z,56.48
2019-04-21T06:05:47.862Z,55.96
2019-04-21T06:06:43.586Z,55.89
2019-04-21T06:07:42.840Z,55.62
2019-04-21T06:08:48.329Z,55.31
2019-04-21T06:09:56.891Z,54.94
2019-04-21T06:11:16.137Z,53.90
2019-04-21T06:12:03.475Z,54.36
2019-04-21T06:13:13.339Z,54.64
2019-04-21T06:14:29.410Z,54.90
2019-04-21T06:15:16.640Z,54.83
2019-04-21T06:16:21.507Z,54.53
2019-04-21T06:17:33.004Z,54.92
2019-04-21T06:18:35.405Z,54.85
2019-04-21T06:19:38.572Z,55.20
2019-04-21T06:20:33.469Z,55.09
2019-04-21T06:21:40.461Z,55.82
2019-04-21T06:22:46.311Z,55.39
2019-04-21T06:23:47.789Z,55.99
2019-04-21T06:25:21.977Z,56.31
2019-04-21T06:26:27.048Z,56.51
2019-04-21T06:27:22.938Z,56.70
2019-04-21T06:28:04.801Z,57.42
2019-04-21T06:29:10.212Z,57.63
2019-04-21T06:30:12.074Z,58.11
2019-04-21T06:31:40.841Z,58.05
2019-04-21T06:32:46.130Z,59.04
2019-04-21T06:33:44.815Z,58.42
2019-04-21T06:34:47.590Z,58.61
2019-04-21T06:35:48.775Z,58.39
2019-04-21T06:36:53.175Z,57.75
2019-04-21T06:37:49.477Z,57.97
2019-04-21T06:39:00.019Z,57.85
2019-04-21T06:40:09.239Z,57.88
2019-04-21T06:41:07.561Z,57.49
2019-04-21T06:42:03.669Z,57.21
2019-04-21T06:43:24.538Z,56.53
2019-04-21T06:44:13.011Z,56.91
2019-04-21T06:45:25.441Z,57.25
2019-04-21T06:46:25.615Z,58.01
2019-04-21T06:47:29.978Z,54.98
2019-04-21T06:48:36.643Z,53.48
2019-04-21T06:49:31.384Z,53.09
2019-04-21T06:50:41.167Z,54.26
2019-04-21T06:51:58.252Z,52.29
2019-04-21T06:55:00.072Z,50.37
2019-04-21T06:56:00.002Z,51.47
2019-04-21T06:57:03.289Z,50.33
2019-04-21T06:58:08.403Z,50.40
2019-04-21T06:59:09.737Z,49.66
2019-04-21T07:00:12.086Z,49.21
2019-04-21T07:01:26.598Z,49.05
2019-04-21T07:03:34.766Z,50.19
2019-04-21T07:04:36.819Z,50.57
2019-04-21T07:05:40.971Z,49.83
2019-04-21T07:07:00.470Z,49.51
2019-04-21T07:08:05.192Z,49.36
2019-04-21T07:09:02.915Z,49.17
2019-04-21T07:09:57.069Z,49.09
2019-04-21T07:10:56.737Z,49.51
2019-04-21T07:12:04.178Z,52.11
2019-04-21T07:13:04.980Z,53.66
2019-04-21T07:15:20.140Z,51.90
2019-04-21T07:16:25.456Z,52.99
2019-04-21T07:17:46.952Z,54.17
2019-04-21T07:18:39.815Z,50.63
2019-04-21T07:19:35.177Z,50.00
2019-04-21T07:20:39.246Z,50.54
2019-04-21T07:21:39.833Z,51.56
2019-04-21T07:22:48.062Z,51.98
2019-04-21T07:23:57.229Z,51.79
2019-04-21T07:24:58.984Z,53.20
2019-04-21T07:26:01.157Z,51.72
2019-04-21T07:27:00.226Z,51.43
2019-04-21T07:28:10.923Z,50.59
2019-04-21T07:29:14.214Z,51.76
2019-04-21T07:30:23.127Z,52.62
2019-04-21T07:31:25.183Z,51.36
2019-04-21T07:32:27.777Z,50.67
2019-04-21T07:33:50.918Z,51.52
2019-04-21T07:34:37.975Z,51.28
2019-04-21T07:35:38.021Z,50.05
2019-04-21T07:36:51.818Z,50.73
2019-04-21T07:37:51.020Z,51.77
2019-04-21T07:38:50.286Z,51.66
2019-04-21T07:39:54.635Z,52.08
2019-04-21T07:40:53.903Z,52.10
2019-04-21T07:41:59.276Z,51.08
2019-04-21T07:43:04.147Z,50.53
2019-04-21T07:44:04.357Z,48.91
2019-04-21T07:45:13.333Z,48.53
2019-04-21T07:46:17.196Z,48.46
2019-04-21T07:47:27.095Z,47.73
2019-04-21T07:48:32.248Z,47.73
2019-04-21T07:49:36.926Z,47.91
2019-04-21T07:50:41.676Z,47.43
2019-04-21T07:51:45.266Z,47.60
2019-04-21T07:52:53.244Z,48.49
2019-04-21T07:53:55.885Z,48.65
2019-04-21T07:55:05.442Z,48.27
2019-04-21T07:55:42.948Z,48.26
2019-04-21T07:56:56.054Z,47.72
2019-04-21T07:58:10.859Z,47.82
2019-04-21T07:59:09.032Z,50.41
2019-04-21T08:00:31.919Z,48.25
2019-04-21T08:01:25.102Z,48.20
2019-04-21T08:02:22.174Z,49.17
2019-04-21T08:03:35.510Z,47.42
2019-04-21T08:05:49.942Z,47.93
2019-04-21T08:06:49.544Z,47.48
2019-04-21T08:08:11.109Z,48.02
2019-04-21T08:08:53.074Z,46.75
2019-04-21T08:09:51.045Z,47.42
2019-04-21T08:10:57.004Z,46.85
2019-04-21T08:12:00.328Z,48.33
2019-04-21T08:13:09.907Z,47.18
2019-04-21T08:14:19.205Z,46.65
2019-04-21T08:15:24.962Z,46.49
2019-04-21T08:16:24.424Z,46.39
2019-04-21T08:17:23.721Z,46.52
2019-04-21T08:18:34.810Z,47.42
2019-04-21T08:19:38.315Z,46.75
2019-04-21T08:20:34.669Z,47.66
2019-04-21T08:21:51.449Z,48.05
2019-04-21T08:22:51.817Z,46.08
2019-04-21T08:23:55.460Z,46.08
2019-04-21T08:24:58.802Z,46.78
2019-04-21T08:26:13.838Z,46.61
2019-04-21T08:27:13.835Z,46.65
2019-04-21T08:28:13.877Z,47.10
2019-04-21T08:29:33.394Z,46.69
2019-04-21T08:30:21.472Z,46.35
2019-04-21T08:31:32.272Z,46.32
2019-04-21T08:32:42.096Z,44.17
2019-04-21T08:33:38.405Z,44.48
2019-04-21T08:34:43.237Z,45.22
2019-04-21T08:36:49.286Z,46.21
2019-04-21T08:37:50.947Z,47.06
2019-04-21T08:38:54.571Z,48.59
2019-04-21T08:40:19.404Z,46.19
2019-04-21T08:42:03.311Z,45.06
2019-04-21T08:43:20.560Z,45.22
2019-04-21T08:44:24.308Z,45.64
2019-04-21T08:45:25.486Z,44.13
2019-04-21T08:46:25.834Z,44.71
2019-04-21T08:47:35.302Z,44.32
2019-04-21T08:48:37.560Z,45.91
2019-04-21T08:49:44.164Z,45.32
2019-04-21T08:50:46.194Z,44.48
2019-04-21T08:51:51.692Z,43.81
2019-04-21T08:52:58.327Z,44.62
2019-04-21T08:54:16.807Z,44.59
2019-04-21T08:56:12.223Z,44.71
2019-04-21T08:57:08.099Z,45.11
2019-04-21T08:58:22.741Z,44.29
2019-04-21T08:59:25.473Z,44.26
2019-04-21T09:00:26.554Z,44.58
2019-04-21T09:01:33.347Z,43.91
2019-04-21T09:02:35.055Z,42.84
2019-04-21T09:03:35.796Z,42.76
2019-04-21T09:04:41.035Z,41.69
2019-04-21T09:05:47.484Z,40.98
2019-04-21T09:07:00.317Z,41.11
2019-04-21T09:07:57.408Z,41.63
2019-04-21T09:09:01.558Z,41.73
2019-04-21T09:10:02.994Z,42.92
2019-04-21T09:11:09.200Z,43.09
2019-04-21T09:12:10.928Z,41.15
2019-04-21T09:13:10.283Z,40.92
2019-04-21T09:14:17.865Z,41.96
2019-04-21T09:15:25.839Z,41.94
2019-04-21T09:16:26.655Z,41.49
2019-04-21T09:17:28.576Z,42.08
2019-04-21T09:18:32.448Z,41.61
2019-04-21T09:19:51.393Z,41.04
2019-04-21T09:21:51.543Z,41.59
2019-04-21T09:22:54.296Z,41.19
2019-04-21T09:23:56.321Z,40.05
2019-04-21T09:25:01.625Z,38.89
2019-04-21T09:26:11.833Z,39.22
2019-04-21T09:27:08.422Z,40.59
2019-04-21T09:28:12.624Z,40.97
2019-04-21T09:29:10.901Z,42.23
2019-04-21T09:30:08.853Z,42.82
2019-04-21T09:31:12.245Z,43.81
2019-04-21T09:32:20.271Z,41.66
2019-04-21T09:33:20.860Z,40.68
2019-04-21T09:34:34.323Z,40.64
2019-04-21T09:35:29.316Z,41.41
2019-04-21T09:36:40.272Z,40.14
2019-04-21T09:37:47.353Z,40.59
2019-04-21T09:38:45.727Z,41.12
2019-04-21T09:39:51.677Z,41.13
2019-04-21T09:40:54.450Z,41.55
2019-04-21T09:41:59.136Z,41.77
2019-04-21T09:43:04.730Z,41.68
2019-04-21T09:44:08.732Z,41.19
2019-04-21T09:45:11.999Z,42.13
2019-04-21T09:46:14.236Z,41.99
2019-04-21T09:47:22.922Z,41.56
2019-04-21T09:48:24.297Z,41.63
2019-04-21T09:49:31.125Z,40.44
2019-04-21T09:50:31.835Z,40.92
2019-04-21T09:51:35.953Z,41.46
2019-04-21T09:52:48.898Z,39.25
2019-04-21T09:53:54.599Z,39.98
2019-04-21T09:54:58.648Z,41.13
2019-04-21T09:55:59.357Z,41.57
2019-04-21T09:57:03.516Z,41.52
2019-04-21T09:58:10.113Z,41.08
2019-04-21T09:59:16.445Z,40.99
2019-04-21T10:00:18.295Z,40.33
2019-04-21T10:01:22.798Z,40.42
2019-04-21T10:02:32.771Z,41.44
2019-04-21T10:03:24.093Z,41.57
2019-04-21T10:04:28.991Z,42.04
2019-04-21T10:05:33.788Z,40.69
2019-04-21T10:06:39.508Z,40.63
2019-04-21T10:07:44.198Z,40.77
2019-04-21T10:08:50.376Z,40.07
2019-04-21T10:09:52.442Z,40.86
2019-04-21T10:10:56.906Z,41.08
2019-04-21T10:12:00.831Z,41.46
2019-04-21T10:13:05.034Z,41.45
2019-04-21T10:14:09.734Z,40.71
2019-04-21T10:15:14.218Z,40.94
2019-04-21T10:16:17.679Z,41.23
2019-04-21T10:17:21.999Z,40.77
2019-04-21T10:18:27.321Z,41.80
2019-04-21T10:19:31.583Z,41.43
2019-04-21T10:20:36.335Z,41.20
2019-04-21T10:21:40.251Z,40.17
2019-04-21T10:22:44.768Z,40.45
2019-04-21T10:23:48.495Z,41.48
2019-04-21T10:24:54.239Z,41.63
2019-04-21T10:25:58.689Z,40.36
2019-04-21T10:27:04.094Z,41.36
2019-04-21T10:28:07.277Z,41.27
2019-04-21T10:29:19.757Z,39.77
2019-04-21T10:30:16.052Z,40.85
2019-04-21T10:31:19.235Z,41.05
2019-04-21T10:32:25.262Z,41.56
2019-04-21T10:33:28.306Z,40.45
2019-04-21T10:34:32.461Z,41.19
2019-04-21T10:35:37.125Z,40.81
2019-04-21T10:36:41.264Z,40.80
2019-04-21T10:37:59.419Z,40.67
2019-04-21T10:38:53.139Z,41.38
2019-04-21T10:39:55.720Z,40.99
2019-04-21T10:40:59.249Z,41.67
2019-04-21T10:42:03.583Z,39.97
2019-04-21T10:43:10.752Z,40.71
2019-04-21T10:44:13.409Z,40.13
2019-04-21T10:45:17.036Z,40.76
2019-04-21T10:46:20.925Z,41.07
2019-04-21T10:47:25.301Z,40.60
2019-04-21T10:48:31.733Z,41.30
2019-04-21T10:49:34.944Z,39.86
2019-04-21T10:50:38.943Z,39.80
2019-04-21T10:51:43.350Z,39.30
2019-04-21T10:52:47.360Z,40.15
2019-04-21T10:53:52.859Z,40.45
2019-04-21T10:55:23.366Z,39.11
2019-04-21T10:56:12.259Z,38.57
2019-04-21T10:57:06.340Z,39.61
2019-04-21T10:58:10.840Z,37.97
2019-04-21T10:59:14.364Z,39.41
2019-04-21T11:00:18.798Z,39.88
2019-04-21T11:01:23.183Z,40.26
2019-04-21T11:02:27.128Z,40.58
2019-04-21T11:03:33.074Z,40.33
2019-04-21T11:04:38.360Z,40.54
2019-04-21T11:05:40.728Z,40.90
2019-04-21T11:06:44.793Z,40.15
2019-04-21T11:08:01.163Z,40.19
2019-04-21T11:08:55.639Z,38.58
2019-04-21T11:09:58.088Z,40.05
2019-04-21T11:11:03.637Z,40.35
2019-04-21T11:12:08.250Z,41.53
2019-04-21T11:13:12.469Z,39.89
2019-04-21T11:14:15.758Z,40.51
2019-04-21T11:15:21.161Z,39.12
2019-04-21T11:16:24.704Z,40.63
2019-04-21T11:17:30.245Z,40.71
2019-04-21T11:18:33.997Z,40.67
2019-04-21T11:19:38.971Z,38.11
2019-04-21T11:20:42.792Z,39.90
2019-04-21T11:21:47.101Z,39.07
2019-04-21T11:22:51.440Z,38.11
2019-04-21T11:23:56.518Z,38.83
2019-04-21T11:25:00.775Z,38.10
2019-04-21T11:26:04.612Z,38.42
2019-04-21T11:27:09.042Z,38.41
2019-04-21T11:28:14.442Z,38.94
2019-04-21T11:29:19.095Z,39.58
2019-04-21T11:30:23.329Z,38.51
2019-04-21T11:31:27.211Z,37.95
2019-04-21T11:32:31.129Z,39.02
2019-04-21T11:33:35.707Z,40.16
2019-04-21T11:34:40.999Z,37.72
2019-04-21T11:35:45.493Z,38.66
2019-04-21T11:36:49.914Z,39.23
2019-04-21T11:38:04.020Z,37.52
2019-04-21T11:39:08.584Z,37.87
2019-04-21T11:40:08.542Z,37.67
2019-04-21T11:41:07.711Z,37.86
2019-04-21T11:42:12.020Z,37.05
2019-04-21T11:43:15.769Z,36.66
2019-04-21T11:44:22.588Z,37.39
2019-04-21T11:45:24.448Z,37.92
2019-04-21T11:46:28.774Z,38.46
2019-04-21T11:47:34.252Z,36.19
2019-04-21T11:48:37.573Z,37.13
2019-04-21T11:49:43.152Z,36.73
2019-04-21T11:50:46.755Z,37.46
2019-04-21T11:51:51.180Z,37.98
2019-04-21T11:52:56.819Z,36.24
2019-04-21T11:54:01.082Z,35.00
2019-04-21T11:55:04.734Z,35.38
2019-04-21T11:56:09.035Z,35.95
2019-04-21T11:57:20.489Z,36.81
2019-04-21T11:58:18.160Z,36.20
2019-04-21T11:59:22.192Z,36.31
2019-04-21T12:00:27.385Z,34.61
2019-04-21T12:01:31.865Z,33.27
2019-04-21T12:02:35.505Z,33.67
2019-04-21T12:03:40.045Z,34.80
2019-04-21T12:04:45.417Z,34.94
2019-04-21T12:05:48.819Z,35.05
2019-04-21T12:06:54.569Z,35.61
2019-04-21T12:07:58.505Z,35.13
2019-04-21T12:09:04.567Z,36.36
2019-04-21T12:10:06.543Z,35.42
2019-04-21T12:11:11.415Z,36.94
2019-04-21T12:12:15.426Z,35.63
2019-04-21T12:13:20.418Z,35.70
2019-04-21T12:14:24.422Z,35.61
2019-04-21T12:15:29.174Z,35.26
2019-04-21T12:16:33.315Z,34.21
2019-04-21T12:17:38.206Z,34.05
2019-04-21T12:18:42.948Z,34.34
2019-04-21T12:19:46.810Z,34.56
2019-04-21T12:20:51.634Z,34.28
2019-04-21T12:22:05.286Z,35.27
2019-04-21T12:23:00.418Z,36.13
2019-04-21T12:24:04.623Z,34.67
2019-04-21T12:25:09.346Z,34.77
2019-04-21T12:26:13.929Z,34.57
2019-04-21T12:27:18.188Z,34.77
2019-04-21T12:28:23.830Z,34.16
2019-04-21T12:29:27.010Z,33.58
2019-04-21T12:30:31.595Z,34.57
2019-04-21T12:31:35.913Z,35.14
2019-04-21T12:32:40.392Z,35.39
2019-04-21T12:33:45.908Z,35.30
2019-04-21T12:34:51.727Z,35.74
2019-04-21T12:35:53.818Z,35.70
2019-04-21T12:36:59.103Z,33.60
2019-04-21T12:38:02.894Z,34.37
2019-04-21T12:39:08.719Z,34.44
2019-04-21T12:40:12.712Z,33.59
2019-04-21T12:41:16.256Z,33.05
2019-04-21T12:42:20.844Z,33.85
2019-04-21T12:43:26.452Z,33.57
2019-04-21T12:44:29.781Z,33.26
2019-04-21T12:45:34.242Z,33.84
2019-04-21T12:46:40.041Z,34.61
2019-04-21T12:47:44.051Z,33.84
2019-04-21T12:48:47.651Z,33.70
2019-04-21T12:49:52.133Z,34.33
2019-04-21T12:50:57.553Z,34.18
2019-04-21T12:52:01.866Z,34.58
2019-04-21T12:53:05.475Z,34.13
2019-04-21T12:54:09.960Z,34.52
2019-04-21T12:55:15.405Z,34.11
2019-04-21T12:56:19.798Z,34.89
2019-04-21T12:57:23.457Z,34.44
2019-04-21T12:58:28.974Z,34.14
2019-04-21T12:59:32.903Z,34.12
2019-04-21T13:00:36.813Z,35.95
2019-04-21T13:01:41.288Z,34.07
2019-04-21T13:02:45.651Z,33.54
2019-04-21T13:03:50.101Z,34.49
2019-04-21T13:04:55.786Z,34.45
2019-04-21T13:05:58.941Z,33.98
2019-04-21T13:07:03.743Z,34.57
2019-04-21T13:08:09.168Z,34.00
2019-04-21T13:09:16.064Z,35.14
2019-04-21T13:10:18.053Z,34.49
2019-04-21T13:11:21.479Z,34.55
2019-04-21T13:12:26.888Z,35.35
2019-04-21T13:13:30.258Z,34.73
2019-04-21T13:14:35.820Z,34.79
2019-04-21T13:15:39.793Z,34.79
2019-04-21T13:16:43.607Z,34.71
2019-04-21T13:17:48.129Z,35.68
2019-04-21T13:18:53.421Z,33.95
2019-04-21T13:19:57.042Z,33.74
2019-04-21T13:21:02.699Z,34.01
2019-04-21T13:22:06.055Z,34.51
2019-04-21T13:23:10.333Z,34.47
2019-04-21T13:24:15.941Z,34.78
2019-04-21T13:25:20.103Z,34.18
2019-04-21T13:26:32.765Z,34.09
2019-04-21T13:27:28.882Z,34.07
2019-04-21T13:28:32.574Z,33.88
2019-04-21T13:29:36.969Z,35.11
2019-04-21T13:30:42.277Z,34.85
2019-04-21T13:31:45.835Z,35.33
2019-04-21T13:32:51.376Z,35.58
2019-04-21T13:33:55.744Z,36.23
2019-04-21T13:34:59.202Z,35.12
2019-04-21T13:36:04.995Z,35.04
2019-04-21T13:37:08.156Z,35.73
2019-04-21T13:38:24.483Z,35.40
2019-04-21T13:39:44.406Z,34.20
2019-04-21T13:40:39.892Z,35.02
2019-04-21T13:41:42.015Z,34.12
2019-04-21T13:42:40.211Z,34.58
2019-04-21T13:43:37.206Z,34.09
2019-04-21T13:44:41.580Z,34.11
2019-04-21T13:45:45.977Z,34.98
2019-04-21T13:46:50.384Z,35.18
2019-04-21T13:47:54.832Z,35.60
2019-04-21T13:48:59.290Z,35.69
2019-04-21T13:50:05.279Z,35.45
2019-04-21T13:51:09.114Z,35.73
2019-04-21T13:52:12.991Z,34.54
2019-04-21T13:53:17.033Z,34.97
2019-04-21T13:54:21.947Z,35.56
2019-04-21T13:55:25.889Z,37.17
2019-04-21T13:56:30.322Z,36.81
2019-04-21T13:57:34.781Z,35.38
2019-04-21T13:58:40.143Z,35.39
2019-04-21T13:59:44.508Z,36.57
2019-04-21T14:00:50.383Z,36.94
2019-04-21T14:01:53.880Z,37.27
2019-04-21T14:02:58.621Z,36.82
2019-04-21T14:04:01.946Z,37.04
2019-04-21T14:05:08.541Z,37.44
2019-04-21T14:06:10.240Z,37.02
2019-04-21T14:07:14.640Z,36.89
2019-04-21T14:08:19.043Z,36.80
2019-04-21T14:09:34.270Z,36.80
2019-04-21T14:10:26.966Z,36.43
2019-04-21T14:11:31.453Z,36.61
2019-04-21T14:12:36.167Z,35.85
2019-04-21T14:13:40.565Z,36.36
2019-04-21T14:14:46.212Z,35.52
2019-04-21T14:15:51.635Z,36.04
2019-04-21T14:16:54.224Z,36.43
2019-04-21T14:17:58.363Z,36.50
2019-04-21T14:19:03.396Z,35.82
2019-04-21T14:20:07.020Z,36.54
2019-04-21T14:21:11.410Z,36.64
2019-04-21T14:22:16.017Z,36.46
2019-04-21T14:23:28.603Z,36.54
2019-04-21T14:24:24.727Z,36.52
2019-04-21T14:25:29.909Z,36.42
2019-04-21T14:26:34.332Z,36.71
2019-04-21T14:27:38.537Z,35.74
2019-04-21T14:28:43.028Z,36.41
2019-04-21T14:29:46.868Z,35.07
2019-04-21T14:30:52.574Z,35.02
2019-04-21T14:31:56.117Z,35.51
2019-04-21T14:33:00.394Z,36.52
2019-04-21T14:34:05.866Z,36.46
2019-04-21T14:35:09.163Z,36.75
2019-04-21T14:36:14.831Z,37.68
2019-04-21T14:37:18.014Z,38.56
2019-04-21T14:38:22.777Z,39.26
2019-04-21T14:39:28.145Z,38.02
2019-04-21T14:40:33.351Z,38.27
2019-04-21T14:41:35.896Z,38.42
2019-04-21T14:42:40.255Z,38.49
2019-04-21T14:43:45.830Z,39.42
2019-04-21T14:44:49.159Z,39.82
2019-04-21T14:45:54.414Z,40.63
2019-04-21T14:46:57.862Z,39.11
2019-04-21T14:48:03.180Z,39.58
2019-04-21T14:49:06.660Z,40.66
2019-04-21T14:50:11.425Z,39.28
2019-04-21T14:51:16.834Z,39.49
2019-04-21T14:52:21.209Z,40.04
2019-04-21T14:53:25.548Z,40.11